createdAt,value
2023-05-14T00:02:16.648Z,23.30
2023-05-14T00:04:43.847Z,26.70
2023-05-14T00:07:11.394Z,33.70
2023-05-14T00:09:38.595Z,25.10
2023-05-14T00:12:06.445Z,28.90
2023-05-14T00:14:33.660Z,26.40
2023-05-14T00:17:01.120Z,23.50
2023-05-14T00:19:28.207Z,26.00
2023-05-14T00:21:55.528Z,24.30
2023-05-14T00:24:23.274Z,26.80
2023-05-14T00:26:50.396Z,27.40
2023-05-14T00:29:17.939Z,30.50
2023-05-14T00:31:45.165Z,26.20
2023-05-14T00:34:12.219Z,26.90
2023-05-14T00:36:39.452Z,29.40
2023-05-14T00:39:06.725Z,27.60
2023-05-14T00:41:33.805Z,26.00
2023-05-14T00:44:01.450Z,26.70
2023-05-14T00:46:28.902Z,28.90
2023-05-14T00:48:57.673Z,33.40
2023-05-14T00:51:25.150Z,30.50
2023-05-14T00:53:52.900Z,33.10
2023-05-14T00:56:20.860Z,31.20
2023-05-14T00:58:48.545Z,28.20
2023-05-14T01:01:16.111Z,28.30
2023-05-14T01:03:44.064Z,27.80
2023-05-14T01:06:39.613Z,31.70
2023-05-14T01:09:25.186Z,24.60
2023-05-14T01:12:16.342Z,28.00
2023-05-14T01:15:06.509Z,29.50
2023-05-14T01:17:38.595Z,33.60
2023-05-14T01:20:06.909Z,32.70
2023-05-14T01:22:34.404Z,30.50
2023-05-14T01:25:01.531Z,32.20
2023-05-14T01:27:31.244Z,30.90
2023-05-14T01:30:18.974Z,30.50
2023-05-14T01:32:51.273Z,30.20
2023-05-14T01:35:22.250Z,28.90
2023-05-14T01:37:50.503Z,26.40
2023-05-14T01:40:19.378Z,27.40
2023-05-14T01:42:47.372Z,31.10
2023-05-14T01:45:15.965Z,28.40
2023-05-14T01:47:43.158Z,30.30
2023-05-14T01:50:10.644Z,27.30
2023-05-14T01:52:38.126Z,28.40
2023-05-14T01:55:05.848Z,29.00
2023-05-14T01:57:33.020Z,27.40
2023-05-14T02:00:01.771Z,28.40
2023-05-14T02:02:29.795Z,25.30
2023-05-14T02:04:56.983Z,27.00
2023-05-14T02:07:24.404Z,26.90
2023-05-14T02:09:52.804Z,27.60
2023-05-14T02:12:20.845Z,27.30
2023-05-14T02:14:48.212Z,35.10
2023-05-14T02:17:17.369Z,29.70
2023-05-14T02:19:44.602Z,27.00
2023-05-14T02:22:12.704Z,26.20
2023-05-14T02:24:40.699Z,26.50
2023-05-14T02:27:08.198Z,27.10
2023-05-14T02:29:35.252Z,27.10
2023-05-14T02:32:02.431Z,25.00
2023-05-14T02:34:29.654Z,28.70
2023-05-14T02:36:56.927Z,24.00
2023-05-14T02:39:24.108Z,25.70
2023-05-14T02:41:51.501Z,23.60
2023-05-14T02:44:18.618Z,24.60
2023-05-14T02:46:46.193Z,23.50
2023-05-14T02:49:13.367Z,20.40
2023-05-14T02:51:40.522Z,24.10
2023-05-14T02:54:07.770Z,24.80
2023-05-14T02:56:35.436Z,23.20
2023-05-14T02:59:02.989Z,23.20
2023-05-14T03:01:30.949Z,22.80
2023-05-14T03:03:58.940Z,24.60
2023-05-14T03:06:26.062Z,27.40
2023-05-14T03:08:53.156Z,31.60
2023-05-14T03:11:20.619Z,25.60
2023-05-14T03:13:47.799Z,24.70
2023-05-14T03:16:15.451Z,29.60
2023-05-14T03:18:42.942Z,47.30
2023-05-14T03:21:10.165Z,30.70
2023-05-14T03:23:37.258Z,29.30
2023-05-14T03:26:04.643Z,34.50
2023-05-14T03:28:31.738Z,28.40
2023-05-14T03:31:00.605Z,27.70
2023-05-14T03:33:28.738Z,28.60
2023-05-14T03:35:56.185Z,34.20
2023-05-14T03:38:23.284Z,28.50
2023-05-14T03:40:50.838Z,27.80
2023-05-14T03:43:18.061Z,24.20
2023-05-14T03:45:45.720Z,22.90
2023-05-14T03:48:13.359Z,24.30
2023-05-14T03:50:40.667Z,21.10
2023-05-14T03:53:07.897Z,26.20
2023-05-14T03:55:36.284Z,26.70
2023-05-14T03:58:06.908Z,25.60
2023-05-14T04:00:34.026Z,23.80
2023-05-14T04:03:02.153Z,29.90
2023-05-14T04:05:29.370Z,25.30
2023-05-14T04:07:57.877Z,24.50
2023-05-14T04:10:25.894Z,27.80
2023-05-14T04:12:55.236Z,31.80
2023-05-14T04:15:24.548Z,27.50
2023-05-14T04:17:53.077Z,29.40
2023-05-14T04:20:20.382Z,32.40
2023-05-14T04:22:47.937Z,33.60
2023-05-14T04:25:15.163Z,26.10
2023-05-14T04:27:42.352Z,24.90
2023-05-14T04:30:10.218Z,24.90
2023-05-14T04:32:37.675Z,22.50
2023-05-14T04:35:05.280Z,17.50
2023-05-14T04:37:32.765Z,22.20
2023-05-14T04:39:59.977Z,22.50
2023-05-14T04:42:27.094Z,19.30
2023-05-14T04:44:54.317Z,22.50
2023-05-14T04:47:21.948Z,19.80
2023-05-14T04:49:49.091Z,21.50
2023-05-14T04:52:16.532Z,32.70
2023-05-14T04:54:43.685Z,21.10
2023-05-14T04:57:10.814Z,18.30
2023-05-14T04:59:38.313Z,17.70
2023-05-14T05:02:05.441Z,21.30
2023-05-14T05:04:32.978Z,18.10
2023-05-14T05:07:00.599Z,15.90
2023-05-14T05:09:27.744Z,18.10
2023-05-14T05:11:55.144Z,19.90
2023-05-14T05:14:22.606Z,21.60
2023-05-14T05:16:50.890Z,19.50
2023-05-14T05:19:19.726Z,19.60
2023-05-14T05:21:49.585Z,28.20
2023-05-14T05:24:16.669Z,27.60
2023-05-14T05:26:43.820Z,36.70
2023-05-14T05:29:11.041Z,34.30
2023-05-14T05:31:38.535Z,28.90
2023-05-14T05:34:05.744Z,33.30
2023-05-14T05:36:34.139Z,30.60
2023-05-14T05:39:01.265Z,36.80
2023-05-14T05:41:29.702Z,40.20
2023-05-14T05:43:56.919Z,34.40
2023-05-14T05:46:24.099Z,33.40
2023-05-14T05:48:52.889Z,35.10
2023-05-14T05:51:20.203Z,34.10
2023-05-14T05:53:47.320Z,35.60
2023-05-14T05:56:14.842Z,42.20
2023-05-14T05:58:41.960Z,38.90
2023-05-14T06:01:09.076Z,27.70
2023-05-14T06:03:36.616Z,28.20
2023-05-14T06:06:04.211Z,28.30
2023-05-14T06:08:31.502Z,29.00
2023-05-14T06:10:58.812Z,30.90
2023-05-14T06:13:25.976Z,30.40
2023-05-14T06:15:53.124Z,33.60
2023-05-14T06:18:20.898Z,31.90
2023-05-14T06:20:48.259Z,28.90
2023-05-14T06:23:15.387Z,26.10
2023-05-14T06:25:42.663Z,23.00
2023-05-14T06:28:09.862Z,27.10
2023-05-14T06:30:37.099Z,27.40
2023-05-14T06:33:04.547Z,28.50
2023-05-14T06:35:32.360Z,27.00
2023-05-14T06:37:59.556Z,28.30
2023-05-14T06:40:26.797Z,26.40
2023-05-14T06:42:54.271Z,34.40
2023-05-14T06:45:21.398Z,30.10
2023-05-14T06:47:48.587Z,29.00
2023-05-14T06:50:16.038Z,25.60
2023-05-14T06:52:44.520Z,24.50
2023-05-14T06:55:11.639Z,27.40
2023-05-14T06:57:40.688Z,27.20
2023-05-14T07:00:08.729Z,26.50
2023-05-14T07:02:36.022Z,22.90
2023-05-14T07:05:03.758Z,23.30
2023-05-14T07:07:31.145Z,25.50
2023-05-14T07:09:58.294Z,25.60
2023-05-14T07:12:25.842Z,20.20
2023-05-14T07:14:53.119Z,22.30
2023-05-14T07:17:20.352Z,22.70
2023-05-14T07:19:47.852Z,25.70
2023-05-14T07:22:15.295Z,29.30
2023-05-14T07:24:43.082Z,24.30
2023-05-14T07:27:12.100Z,20.80
2023-05-14T07:29:39.177Z,20.10
2023-05-14T07:32:06.279Z,22.50
2023-05-14T07:34:33.865Z,21.40
2023-05-14T07:37:01.429Z,17.50
2023-05-14T07:39:28.491Z,20.20
2023-05-14T07:41:55.983Z,24.20
2023-05-14T07:44:23.432Z,17.30
2023-05-14T07:46:50.549Z,20.00
2023-05-14T07:49:18.106Z,19.40
2023-05-14T07:51:45.211Z,22.00
2023-05-14T07:54:12.808Z,20.30
2023-05-14T07:56:40.037Z,18.10
2023-05-14T07:59:07.156Z,18.80
2023-05-14T08:01:34.312Z,15.80
2023-05-14T08:04:04.580Z,15.30
2023-05-14T08:06:32.022Z,18.50
2023-05-14T08:08:59.860Z,19.20
2023-05-14T08:11:27.024Z,17.10
2023-05-14T08:13:54.139Z,17.20
2023-05-14T08:16:21.684Z,18.90
2023-05-14T08:18:49.016Z,15.60
2023-05-14T08:21:17.648Z,17.60
2023-05-14T08:23:45.465Z,16.20
2023-05-14T08:26:13.054Z,17.10
2023-05-14T08:28:40.269Z,16.10
2023-05-14T08:31:08.136Z,16.80
2023-05-14T08:33:35.683Z,14.50
2023-05-14T08:36:03.508Z,13.80
2023-05-14T08:38:31.079Z,17.10
2023-05-14T08:40:59.389Z,13.70
2023-05-14T08:43:32.970Z,13.30
2023-05-14T08:46:01.594Z,15.10
2023-05-14T08:48:33.150Z,14.10
2023-05-14T08:51:01.039Z,19.10
2023-05-14T08:53:28.644Z,19.20
2023-05-14T08:55:56.110Z,18.70
2023-05-14T08:58:26.266Z,15.60
2023-05-14T09:03:22.733Z,13.80
2023-05-14T09:05:51.764Z,16.30
2023-05-14T09:08:19.725Z,19.20
2023-05-14T09:10:47.159Z,15.20
2023-05-14T09:13:14.729Z,16.00
2023-05-14T09:15:41.959Z,16.90
2023-05-14T09:18:09.862Z,18.70
2023-05-14T09:20:38.861Z,16.40
2023-05-14T09:23:06.062Z,22.10
2023-05-14T09:25:33.787Z,21.00
2023-05-14T09:28:07.368Z,16.20
2023-05-14T09:30:36.555Z,16.80
2023-05-14T09:33:09.873Z,16.00
2023-05-14T09:35:39.897Z,15.50
2023-05-14T09:38:12.974Z,14.30
2023-05-14T09:40:40.296Z,12.10
2023-05-14T09:43:09.009Z,11.00
2023-05-14T09:45:36.477Z,11.30
2023-05-14T09:48:04.029Z,11.60
2023-05-14T09:53:09.298Z,10.50
2023-05-14T09:55:38.154Z,10.60
2023-05-14T09:58:05.849Z,9.50
2023-05-14T10:00:34.479Z,7.70
2023-05-14T10:03:06.494Z,6.70
2023-05-14T10:05:36.338Z,9.30
2023-05-14T10:08:13.019Z,10.60
2023-05-14T10:10:40.687Z,7.40
2023-05-14T10:13:14.438Z,8.90
2023-05-14T10:15:59.951Z,8.90
2023-05-14T10:18:31.153Z,9.40
2023-05-14T10:21:06.246Z,10.00
2023-05-14T10:23:37.690Z,7.90
2023-05-14T10:26:06.230Z,10.20
2023-05-14T10:28:34.376Z,10.80
2023-05-14T10:31:03.446Z,9.00
2023-05-14T10:33:45.543Z,13.70
2023-05-14T10:36:12.736Z,10.60
2023-05-14T10:38:40.277Z,9.20
2023-05-14T10:41:21.172Z,7.90
2023-05-14T10:43:49.791Z,7.00
2023-05-14T10:46:17.589Z,6.80
2023-05-14T10:48:45.027Z,10.20
2023-05-14T10:51:12.543Z,11.10
2023-05-14T10:53:42.409Z,9.40
2023-05-14T10:56:13.400Z,10.80
2023-05-14T10:58:48.351Z,9.30
2023-05-14T11:01:15.487Z,9.10
2023-05-14T11:03:45.529Z,9.20
2023-05-14T11:06:15.568Z,11.40
2023-05-14T11:08:44.106Z,10.60
2023-05-14T11:11:12.196Z,9.60
2023-05-14T11:13:41.058Z,7.30
2023-05-14T11:18:41.487Z,9.20
2023-05-14T11:21:08.731Z,12.60
2023-05-14T11:23:36.031Z,8.50
2023-05-14T11:26:03.527Z,10.60
2023-05-14T11:28:31.503Z,10.00
2023-05-14T11:30:58.777Z,8.20
2023-05-14T11:33:27.487Z,9.90
2023-05-14T11:35:54.589Z,6.90
2023-05-14T11:38:22.236Z,9.00
2023-05-14T11:40:53.655Z,9.90
2023-05-14T11:43:23.310Z,7.10
2023-05-14T11:45:52.149Z,7.80
2023-05-14T11:48:20.026Z,7.20
2023-05-14T11:50:52.438Z,9.00
2023-05-14T11:53:24.925Z,8.10
2023-05-14T11:55:54.140Z,5.90
2023-05-14T11:58:21.783Z,7.40
2023-05-14T12:00:55.248Z,6.50
2023-05-14T12:03:25.868Z,8.30
2023-05-14T12:05:56.999Z,11.40
2023-05-14T12:08:31.201Z,6.60
2023-05-14T12:11:00.202Z,8.40
2023-05-14T12:13:29.753Z,10.60
2023-05-14T12:16:00.293Z,10.30
2023-05-14T12:18:30.584Z,8.30
2023-05-14T12:21:05.512Z,8.60
2023-05-14T12:23:32.998Z,6.80
2023-05-14T12:26:08.236Z,9.50
2023-05-14T12:28:42.788Z,5.80
2023-05-14T12:31:10.456Z,7.50
2023-05-14T12:33:37.586Z,5.50
2023-05-14T12:36:20.737Z,10.30
2023-05-14T12:38:50.593Z,7.20
2023-05-14T12:41:18.009Z,7.60
2023-05-14T12:43:49.273Z,5.70
2023-05-14T12:46:16.921Z,5.80
2023-05-14T12:48:44.056Z,5.30
2023-05-14T12:51:11.289Z,4.60
2023-05-14T12:53:40.884Z,6.20
2023-05-14T12:56:08.462Z,9.90
2023-05-14T12:58:35.678Z,9.40
2023-05-14T13:01:03.267Z,5.90
2023-05-14T13:03:31.247Z,10.10
2023-05-14T13:06:00.159Z,7.10
2023-05-14T13:08:27.884Z,8.80
2023-05-14T13:10:55.782Z,7.40
2023-05-14T13:13:23.464Z,7.20
2023-05-14T13:15:52.554Z,6.80
2023-05-14T13:18:20.251Z,6.20
2023-05-14T13:20:47.520Z,7.30
2023-05-14T13:23:15.256Z,6.60
2023-05-14T13:25:42.475Z,5.20
2023-05-14T13:28:09.693Z,6.10
2023-05-14T13:30:37.938Z,7.40
2023-05-14T13:33:05.690Z,5.50
2023-05-14T13:35:34.223Z,5.50
2023-05-14T13:38:01.526Z,4.70
2023-05-14T13:40:28.636Z,4.60
2023-05-14T13:42:56.035Z,5.80
2023-05-14T13:45:23.302Z,6.50
2023-05-14T13:47:51.617Z,6.40
2023-05-14T13:50:19.348Z,7.80
2023-05-14T13:52:46.436Z,9.90
2023-05-14T13:55:13.732Z,7.00
2023-05-14T13:57:42.786Z,6.10
2023-05-14T14:00:11.376Z,7.20
2023-05-14T14:02:38.472Z,6.50
2023-05-14T14:05:06.211Z,7.10
2023-05-14T14:07:33.775Z,8.20
2023-05-14T14:10:01.916Z,5.70
2023-05-14T14:12:29.239Z,6.80
2023-05-14T14:14:56.833Z,5.70
2023-05-14T14:17:23.924Z,7.90
2023-05-14T14:19:51.314Z,8.00
2023-05-14T14:22:18.719Z,4.90
2023-05-14T14:24:46.993Z,7.40
2023-05-14T14:27:14.137Z,6.30
2023-05-14T14:29:41.469Z,9.60
2023-05-14T14:32:08.839Z,14.10
2023-05-14T14:34:36.194Z,12.60
2023-05-14T14:37:03.791Z,7.60
2023-05-14T14:39:31.246Z,8.10
2023-05-14T14:41:58.321Z,5.30
2023-05-14T14:44:25.520Z,5.80
2023-05-14T14:46:52.974Z,5.70
2023-05-14T14:49:20.306Z,7.30
2023-05-14T14:51:47.481Z,5.80
2023-05-14T14:54:15.097Z,8.70
2023-05-14T14:56:43.019Z,6.10
2023-05-14T14:59:10.217Z,9.80
2023-05-14T15:01:39.698Z,6.00
2023-05-14T15:04:07.398Z,8.20
2023-05-14T15:06:34.702Z,5.60
2023-05-14T15:09:03.100Z,7.30
2023-05-14T15:11:30.612Z,5.60
2023-05-14T15:13:58.107Z,6.80
2023-05-14T15:16:29.703Z,5.80
2023-05-14T15:18:57.214Z,6.60
2023-05-14T15:21:24.749Z,7.00
2023-05-14T15:23:51.833Z,7.30
2023-05-14T15:26:19.252Z,9.40
2023-05-14T15:28:46.638Z,14.20
2023-05-14T15:31:13.802Z,10.30
2023-05-14T15:33:41.737Z,13.80
2023-05-14T15:36:09.407Z,13.90
2023-05-14T15:38:36.631Z,13.10
2023-05-14T15:41:03.772Z,15.80
2023-05-14T15:43:31.202Z,11.60
2023-05-14T15:45:58.777Z,10.80
2023-05-14T15:48:25.944Z,14.30
2023-05-14T15:50:53.295Z,12.00
2023-05-14T15:53:21.087Z,10.70
2023-05-14T15:55:48.478Z,12.90
2023-05-14T15:58:15.747Z,16.10
2023-05-14T16:00:43.305Z,11.70
2023-05-14T16:03:19.596Z,12.60
2023-05-14T16:06:12.794Z,16.20
2023-05-14T16:08:40.199Z,13.20
2023-05-14T16:11:07.620Z,11.70
2023-05-14T16:13:37.321Z,11.90
2023-05-14T16:16:12.129Z,21.90
2023-05-14T16:18:55.518Z,14.10
2023-05-14T16:21:22.642Z,15.00
2023-05-14T16:23:50.232Z,11.40
2023-05-14T16:26:17.645Z,12.50
2023-05-14T16:28:44.709Z,12.40
2023-05-14T16:31:12.021Z,16.70
2023-05-14T16:33:39.534Z,15.10
2023-05-14T16:36:07.271Z,14.80
2023-05-14T16:38:35.534Z,11.60
2023-05-14T16:41:06.718Z,10.00
2023-05-14T16:43:37.405Z,14.00
2023-05-14T16:46:05.793Z,10.00
2023-05-14T16:48:33.291Z,13.30
2023-05-14T16:51:00.458Z,14.30
2023-05-14T16:53:27.630Z,18.60
2023-05-14T16:55:55.296Z,14.80
2023-05-14T16:58:22.703Z,15.70
2023-05-14T17:00:49.836Z,18.10
2023-05-14T17:03:34.984Z,13.60
2023-05-14T17:06:18.441Z,12.90
2023-05-14T17:09:14.278Z,11.90
2023-05-14T17:12:03.868Z,13.70
2023-05-14T17:14:49.622Z,11.50
2023-05-14T17:17:33.784Z,12.90
2023-05-14T17:20:23.905Z,16.10
2023-05-14T17:23:06.367Z,10.00
2023-05-14T17:25:56.535Z,11.70
2023-05-14T17:28:39.040Z,14.50
2023-05-14T17:31:26.554Z,12.70
2023-05-14T17:34:09.722Z,10.60
2023-05-14T17:37:00.523Z,17.40
2023-05-14T17:39:46.335Z,10.00
2023-05-14T17:42:29.127Z,10.30
2023-05-14T17:45:12.613Z,8.90
2023-05-14T17:47:59.339Z,10.60
2023-05-14T17:50:43.326Z,8.20
2023-05-14T17:53:26.939Z,9.40
2023-05-14T17:56:01.121Z,11.40
2023-05-14T17:58:29.262Z,10.70
2023-05-14T18:00:56.731Z,7.50
2023-05-14T18:03:24.183Z,10.40
2023-05-14T18:05:51.945Z,12.60
2023-05-14T18:08:19.562Z,9.30
2023-05-14T18:10:46.794Z,9.80
2023-05-14T18:13:13.954Z,11.40
2023-05-14T18:15:41.460Z,8.10
2023-05-14T18:18:08.957Z,6.80
2023-05-14T18:20:36.224Z,10.30
2023-05-14T18:23:04.689Z,9.80
2023-05-14T18:25:32.148Z,9.10
2023-05-14T18:27:59.731Z,9.20
2023-05-14T18:30:27.665Z,6.80
2023-05-14T18:32:54.887Z,10.70
2023-05-14T18:35:22.184Z,11.10
2023-05-14T18:37:50.018Z,7.90
2023-05-14T18:40:18.717Z,8.20
2023-05-14T18:42:46.862Z,6.80
2023-05-14T18:45:14.183Z,6.80
2023-05-14T18:47:41.347Z,5.80
2023-05-14T18:50:08.824Z,7.90
2023-05-14T18:52:36.399Z,13.00
2023-05-14T18:55:03.948Z,8.70
2023-05-14T18:57:34.466Z,11.40
2023-05-14T19:02:31.965Z,11.30
2023-05-14T19:05:00.149Z,9.90
2023-05-14T19:07:27.838Z,11.40
2023-05-14T19:09:55.033Z,10.20
2023-05-14T19:12:22.269Z,12.80
2023-05-14T19:14:49.724Z,13.90
2023-05-14T19:17:18.565Z,13.10
2023-05-14T19:19:47.739Z,13.00
2023-05-14T19:22:15.338Z,15.50
2023-05-14T19:24:42.543Z,12.80
2023-05-14T19:27:09.948Z,11.00
2023-05-14T19:29:37.534Z,16.30
2023-05-14T19:32:05.677Z,9.60
2023-05-14T19:34:33.354Z,11.30
2023-05-14T19:37:04.389Z,16.30
2023-05-14T19:39:32.009Z,9.80
2023-05-14T19:41:59.820Z,9.60
2023-05-14T19:44:27.272Z,12.60
2023-05-14T19:46:54.649Z,12.50
2023-05-14T19:49:22.136Z,10.20
2023-05-14T19:51:50.804Z,9.70
2023-05-14T19:54:17.958Z,9.90
2023-05-14T19:56:45.418Z,10.30
2023-05-14T19:59:12.486Z,9.00
2023-05-14T20:01:40.027Z,9.20
2023-05-14T20:04:08.203Z,10.80
2023-05-14T20:06:36.527Z,10.50
2023-05-14T20:09:05.481Z,10.30
2023-05-14T20:11:32.984Z,10.00
2023-05-14T20:14:00.502Z,9.80
2023-05-14T20:16:28.172Z,10.50
2023-05-14T20:18:55.526Z,9.50
2023-05-14T20:21:23.372Z,11.90
2023-05-14T20:23:50.581Z,9.60
2023-05-14T20:26:17.652Z,10.70
2023-05-14T20:28:46.189Z,9.00
2023-05-14T20:31:13.589Z,11.80
2023-05-14T20:33:40.766Z,8.60
2023-05-14T20:36:08.477Z,7.90
2023-05-14T20:38:36.844Z,10.40
2023-05-14T20:41:04.205Z,8.40
2023-05-14T20:43:31.958Z,9.30
2023-05-14T20:46:00.273Z,9.10
2023-05-14T20:48:27.555Z,8.40
2023-05-14T20:50:54.785Z,11.40
2023-05-14T20:53:22.506Z,8.70
2023-05-14T20:55:49.727Z,8.70
2023-05-14T20:58:17.209Z,7.60
2023-05-14T21:00:44.833Z,8.80
2023-05-14T21:03:12.603Z,9.20
2023-05-14T21:05:41.658Z,9.80
2023-05-14T21:08:09.394Z,7.30
2023-05-14T21:10:36.589Z,7.80
2023-05-14T21:13:03.787Z,12.20
2023-05-14T21:15:31.206Z,10.10
2023-05-14T21:17:58.560Z,11.70
2023-05-14T21:20:28.824Z,11.50
2023-05-14T21:22:56.272Z,12.90
2023-05-14T21:25:23.723Z,12.60
2023-05-14T21:27:51.442Z,11.80
2023-05-14T21:30:20.301Z,11.20
2023-05-14T21:32:50.445Z,11.10
2023-05-14T21:35:17.679Z,12.80
2023-05-14T21:37:45.341Z,10.90
2023-05-14T21:40:12.742Z,11.20
2023-05-14T21:42:40.426Z,9.90
2023-05-14T21:45:08.233Z,10.50
2023-05-14T21:47:36.474Z,12.70
2023-05-14T21:50:05.378Z,8.80
2023-05-14T21:52:33.251Z,10.20
2023-05-14T21:55:00.427Z,11.10
2023-05-14T21:57:28.642Z,10.90
2023-05-14T21:59:57.742Z,18.10
2023-05-14T22:02:25.036Z,14.10
2023-05-14T22:04:52.291Z,12.80
2023-05-14T22:07:19.853Z,14.20
2023-05-14T22:09:47.018Z,16.70
2023-05-14T22:12:14.254Z,16.40
2023-05-14T22:14:41.798Z,21.00
2023-05-14T22:17:09.379Z,17.90
2023-05-14T22:19:36.549Z,16.80
2023-05-14T22:22:04.213Z,18.60
2023-05-14T22:24:31.398Z,16.90
2023-05-14T22:26:58.652Z,16.20
2023-05-14T22:29:26.219Z,20.50
2023-05-14T22:31:53.541Z,15.80
2023-05-14T22:34:21.018Z,16.10
2023-05-14T22:36:48.493Z,17.20
2023-05-14T22:39:15.748Z,16.50
2023-05-14T22:41:42.927Z,14.20
2023-05-14T22:44:10.434Z,18.30
2023-05-14T22:46:37.956Z,14.70
2023-05-14T22:49:05.662Z,18.60
2023-05-14T22:51:32.839Z,16.20
2023-05-14T22:54:00.018Z,15.60
2023-05-14T22:56:27.881Z,18.60
2023-05-14T22:58:55.701Z,25.30
2023-05-14T23:01:22.954Z,42.10
2023-05-14T23:03:50.674Z,35.40
2023-05-14T23:06:18.025Z,14.60
2023-05-14T23:08:46.020Z,16.50
2023-05-14T23:11:14.016Z,14.70
2023-05-14T23:13:41.194Z,18.00
2023-05-14T23:16:08.375Z,14.50
2023-05-14T23:18:35.853Z,16.20
2023-05-14T23:21:03.592Z,12.80
2023-05-14T23:23:30.886Z,13.00
2023-05-14T23:25:58.113Z,15.10
2023-05-14T23:28:26.016Z,14.40
2023-05-14T23:30:53.178Z,14.60
2023-05-14T23:33:20.307Z,18.70
2023-05-14T23:35:48.384Z,21.10
2023-05-14T23:38:16.436Z,16.00
2023-05-14T23:40:43.577Z,15.60
2023-05-14T23:43:10.736Z,16.00
2023-05-14T23:45:39.049Z,17.30
2023-05-14T23:48:06.268Z,17.70
2023-05-14T23:50:33.453Z,21.70
2023-05-14T23:53:00.910Z,18.30
2023-05-14T23:55:28.429Z,23.40
2023-05-14T23:57:55.592Z,21.40
